createdAt,value
2022-08-30T00:01:37.262Z,101726.34
2022-08-30T00:04:39.970Z,101723.28
2022-08-30T00:07:42.569Z,101728.28
2022-08-30T00:10:48.235Z,101739.94
2022-08-30T00:13:52.548Z,101732.44
2022-08-30T00:16:55.354Z,101736.63
2022-08-30T00:19:57.973Z,101735.81
2022-08-30T00:23:01.165Z,101740.78
2022-08-30T00:26:06.019Z,101746.34
2022-08-30T00:29:08.629Z,101745.22
2022-08-30T00:32:11.328Z,101745.22
2022-08-30T00:35:16.939Z,101749.09
2022-08-30T00:38:19.572Z,101744.69
2022-08-30T00:41:23.724Z,101749.09
2022-08-30T00:44:26.383Z,101749.94
2022-08-30T00:47:29.201Z,101746.91
2022-08-30T00:50:36.933Z,101747.16
2022-08-30T00:53:43.546Z,101743.53
2022-08-30T00:56:49.142Z,101747.19
2022-08-30T00:59:52.095Z,101747.97
2022-08-30T01:02:55.062Z,101751.84
2022-08-30T01:05:58.807Z,101752.69
2022-08-30T01:09:02.704Z,101756.00
2022-08-30T01:12:07.448Z,101759.06
2022-08-30T01:15:13.003Z,101760.22
2022-08-30T01:18:17.418Z,101769.38
2022-08-30T01:21:25.413Z,101762.69
2022-08-30T01:24:30.249Z,101760.16
2022-08-30T01:27:33.694Z,101756.84
2022-08-30T01:30:40.198Z,101761.56
2022-08-30T01:33:43.690Z,101756.00
2022-08-30T01:36:47.825Z,101762.94
2022-08-30T01:39:51.904Z,101769.31
2022-08-30T01:42:54.773Z,101764.88
2022-08-30T01:45:57.523Z,101761.53
2022-08-30T01:49:00.335Z,101765.13
2022-08-30T01:52:03.255Z,101751.56
2022-08-30T01:55:08.765Z,101760.16
2022-08-30T01:58:11.981Z,101758.78
2022-08-30T02:01:19.674Z,101768.47
2022-08-30T02:04:22.610Z,101767.09
2022-08-30T02:07:25.763Z,101771.47
2022-08-30T02:10:30.452Z,101762.56
2022-08-30T02:13:33.182Z,101758.97
2022-08-30T02:16:35.877Z,101764.00
2022-08-30T02:19:38.845Z,101755.38
2022-08-30T02:22:48.141Z,101764.50
2022-08-30T02:25:53.838Z,101762.31
2022-08-30T02:28:56.594Z,101757.31
2022-08-30T02:32:01.820Z,101755.91
2022-08-30T02:35:05.194Z,101748.69
2022-08-30T02:38:08.321Z,101751.41
2022-08-30T02:41:12.340Z,101750.53
2022-08-30T02:44:15.382Z,101744.75
2022-08-30T02:47:18.142Z,101743.69
2022-08-30T02:50:21.029Z,101738.16
2022-08-30T02:53:24.338Z,101756.72
2022-08-30T02:56:31.051Z,101751.72
2022-08-30T02:59:36.935Z,101747.75
2022-08-30T03:02:40.435Z,101748.59
2022-08-30T03:05:43.166Z,101747.63
2022-08-30T03:08:46.099Z,101747.03
2022-08-30T03:11:50.155Z,101746.50
2022-08-30T03:14:52.829Z,101742.63
2022-08-30T03:17:56.425Z,101739.53
2022-08-30T03:20:59.234Z,101743.16
2022-08-30T03:24:02.004Z,101746.97
2022-08-30T03:27:06.042Z,101748.88
2022-08-30T03:30:10.374Z,101750.00
2022-08-30T03:33:13.083Z,101753.31
2022-08-30T03:36:15.984Z,101753.25
2022-08-30T03:39:18.714Z,101749.41
2022-08-30T03:42:23.897Z,101755.06
2022-08-30T03:45:27.617Z,101764.81
2022-08-30T03:48:31.118Z,101754.59
2022-08-30T03:51:34.230Z,101765.94
2022-08-30T03:54:37.938Z,101769.81
2022-08-30T03:57:43.699Z,101764.47
2022-08-30T04:00:46.761Z,101773.94
2022-08-30T04:03:49.581Z,101767.88
2022-08-30T04:06:52.555Z,101772.03
2022-08-30T04:09:55.179Z,101760.13
2022-08-30T04:12:59.291Z,101763.16
2022-08-30T04:16:01.942Z,101760.94
2022-08-30T04:19:05.290Z,101767.03
2022-08-30T04:22:07.974Z,101770.09
2022-08-30T04:25:15.577Z,101766.13
2022-08-30T04:28:20.030Z,101776.94
2022-08-30T04:31:22.979Z,101777.69
2022-08-30T04:34:25.681Z,101774.41
2022-08-30T04:37:28.394Z,101781.56
2022-08-30T04:40:31.301Z,101776.84
2022-08-30T04:43:35.497Z,101779.28
2022-08-30T04:46:38.280Z,101782.13
2022-08-30T04:49:47.648Z,101787.50
2022-08-30T04:52:50.312Z,101785.41
2022-08-30T04:55:53.114Z,101779.50
2022-08-30T04:58:57.156Z,101782.72
2022-08-30T05:02:00.205Z,101785.19
2022-08-30T05:05:20.946Z,101789.88
2022-08-30T05:08:24.902Z,101790.06
2022-08-30T05:11:28.126Z,101789.31
2022-08-30T05:14:33.959Z,101791.81
2022-08-30T05:17:38.093Z,101787.38
2022-08-30T05:20:41.086Z,101796.84
2022-08-30T05:23:44.836Z,101807.19
2022-08-30T05:29:52.483Z,101800.69
2022-08-30T05:32:55.658Z,101806.59
2022-08-30T05:35:58.524Z,101807.75
2022-08-30T05:39:05.642Z,101813.06
2022-08-30T05:42:08.612Z,101811.16
2022-08-30T05:45:13.517Z,101809.31
2022-08-30T05:48:16.311Z,101812.38
2022-08-30T05:51:21.549Z,101815.78
2022-08-30T05:54:24.352Z,101811.09
2022-08-30T05:57:27.758Z,101815.28
2022-08-30T06:00:31.894Z,101810.34
2022-08-30T06:03:35.129Z,101818.69
2022-08-30T06:06:39.727Z,101810.97
2022-08-30T06:09:42.381Z,101816.59
2022-08-30T06:12:45.210Z,101817.44
2022-08-30T06:15:49.782Z,101826.94
2022-08-30T06:18:53.254Z,101822.56
2022-08-30T06:21:56.042Z,101819.25
2022-08-30T06:24:58.678Z,101829.56
2022-08-30T06:28:01.490Z,101823.75
2022-08-30T06:31:08.690Z,101831.28
2022-08-30T06:34:11.704Z,101833.50
2022-08-30T06:37:29.031Z,101831.06
2022-08-30T06:40:33.300Z,101835.22
2022-08-30T06:43:36.349Z,101835.25
2022-08-30T06:46:40.422Z,101843.31
2022-08-30T06:49:43.323Z,101850.81
2022-08-30T06:52:47.392Z,101844.19
2022-08-30T06:55:56.259Z,101841.16
2022-08-30T06:58:59.363Z,101847.00
2022-08-30T07:02:03.408Z,101851.19
2022-08-30T07:05:07.995Z,101854.50
2022-08-30T07:08:11.156Z,101852.28
2022-08-30T07:11:13.966Z,101849.81
2022-08-30T07:14:16.578Z,101852.31
2022-08-30T07:17:37.936Z,101845.38
2022-08-30T07:20:40.928Z,101847.03
2022-08-30T07:23:46.890Z,101853.41
2022-08-30T07:26:52.296Z,101855.09
2022-08-30T07:29:55.903Z,101854.81
2022-08-30T07:33:00.144Z,101856.75
2022-08-30T07:36:04.853Z,101862.56
2022-08-30T07:39:08.054Z,101858.69
2022-08-30T07:42:10.713Z,101867.00
2022-08-30T07:45:14.094Z,101866.16
2022-08-30T07:48:18.143Z,101869.81
2022-08-30T07:51:23.254Z,101879.25
2022-08-30T07:54:26.118Z,101877.00
2022-08-30T07:57:31.653Z,101873.13
2022-08-30T08:00:34.487Z,101883.38
2022-08-30T08:03:40.179Z,101880.59
2022-08-30T08:06:43.194Z,101880.59
2022-08-30T08:09:45.934Z,101880.03
2022-08-30T08:12:48.638Z,101888.34
2022-08-30T08:15:51.537Z,101879.75
2022-08-30T08:18:56.229Z,101880.03
2022-08-30T08:22:21.119Z,101882.25
2022-08-30T08:25:23.190Z,101881.16
2022-08-30T08:28:26.379Z,101893.09
2022-08-30T08:31:33.505Z,101894.22
2022-08-30T08:34:38.047Z,101897.25
2022-08-30T08:37:41.053Z,101907.84
2022-08-30T08:40:54.438Z,101906.97
2022-08-30T08:43:57.156Z,101914.72
2022-08-30T08:47:11.456Z,101916.09
2022-08-30T08:50:21.212Z,101919.13
2022-08-30T08:53:50.700Z,101918.34
2022-08-30T08:56:53.498Z,101914.47
2022-08-30T08:59:56.293Z,101911.69
2022-08-30T09:03:01.138Z,101917.81
2022-08-30T09:06:08.001Z,101917.25
2022-08-30T09:09:11.223Z,101920.53
2022-08-30T09:12:14.807Z,101928.31
2022-08-30T09:15:26.926Z,101919.41
2022-08-30T09:18:48.144Z,101923.84
2022-08-30T09:21:58.235Z,101916.66
2022-08-30T09:25:05.725Z,101924.16
2022-08-30T09:28:14.475Z,101916.31
2022-08-30T09:31:20.451Z,101920.47
2022-08-30T09:34:24.626Z,101924.31
2022-08-30T09:37:34.335Z,101921.84
2022-08-30T09:40:40.626Z,101921.59
2022-08-30T09:43:43.966Z,101922.91
2022-08-30T09:46:52.025Z,101923.97
2022-08-30T09:50:06.127Z,101920.97
2022-08-30T09:53:23.415Z,101918.41
2022-08-30T09:56:34.907Z,101925.34
2022-08-30T09:59:49.154Z,101919.16
2022-08-30T10:03:04.891Z,101908.94
2022-08-30T10:06:13.884Z,101914.81
2022-08-30T10:09:28.532Z,101917.25
2022-08-30T10:12:42.418Z,101902.28
2022-08-30T10:15:50.797Z,101904.13
2022-08-30T10:19:06.429Z,101911.50
2022-08-30T10:22:15.330Z,101904.19
2022-08-30T10:25:24.149Z,101906.47
2022-08-30T10:28:34.863Z,101908.06
2022-08-30T10:31:43.174Z,101901.78
2022-08-30T10:34:53.898Z,101900.38
2022-08-30T10:38:00.814Z,101901.56
2022-08-30T10:41:17.329Z,101890.28
2022-08-30T10:44:24.371Z,101890.72
2022-08-30T10:47:34.481Z,101889.81
2022-08-30T10:50:42.800Z,101885.97
2022-08-30T10:53:48.881Z,101887.25
2022-08-30T10:56:56.403Z,101894.09
2022-08-30T11:00:02.701Z,101882.31
2022-08-30T11:03:37.141Z,101887.13
2022-08-30T11:06:48.559Z,101886.16
2022-08-30T11:10:21.140Z,101883.28
2022-08-30T11:13:29.865Z,101884.03
2022-08-30T11:16:38.446Z,101876.47
2022-08-30T11:19:42.629Z,101879.47
2022-08-30T11:23:17.249Z,101877.41
2022-08-30T11:27:07.687Z,101869.38
2022-08-30T11:30:49.299Z,101865.94
2022-08-30T11:33:54.027Z,101866.38
2022-08-30T11:37:03.682Z,101855.59
2022-08-30T11:40:48.246Z,101860.72
2022-08-30T11:43:57.322Z,101848.50
2022-08-30T11:47:02.264Z,101849.13
2022-08-30T11:50:14.158Z,101841.56
2022-08-30T11:53:25.896Z,101838.34
2022-08-30T11:56:37.653Z,101832.31
2022-08-30T11:59:52.384Z,101828.25
2022-08-30T12:03:00.368Z,101834.13
2022-08-30T12:06:04.409Z,101831.97
2022-08-30T12:09:08.550Z,101833.81
2022-08-30T12:12:13.347Z,101836.19
2022-08-30T12:15:57.896Z,101831.53
2022-08-30T12:19:18.181Z,101828.88
2022-08-30T12:22:23.147Z,101834.16
2022-08-30T12:25:32.839Z,101829.72
2022-08-30T12:28:35.669Z,101824.69
2022-08-30T12:31:45.187Z,101822.31
2022-08-30T12:34:54.885Z,101816.66
2022-08-30T12:38:01.032Z,101805.94
2022-08-30T12:41:04.863Z,101801.28
2022-08-30T12:44:15.616Z,101809.13
2022-08-30T12:47:22.293Z,101800.94
2022-08-30T12:50:30.644Z,101797.47
2022-08-30T12:53:37.043Z,101792.41
2022-08-30T12:57:10.016Z,101795.69
2022-08-30T13:00:26.751Z,101788.53
2022-08-30T13:03:34.326Z,101793.66
2022-08-30T13:06:42.435Z,101789.84
2022-08-30T13:09:45.197Z,101786.25
2022-08-30T13:13:06.728Z,101787.59
2022-08-30T13:16:13.806Z,101787.84
2022-08-30T13:19:31.091Z,101779.66
2022-08-30T13:22:38.089Z,101781.78
2022-08-30T13:25:41.367Z,101784.66
2022-08-30T13:28:48.680Z,101785.41
2022-08-30T13:31:51.706Z,101785.31
2022-08-30T13:34:54.375Z,101781.13
2022-08-30T13:38:01.090Z,101780.47
2022-08-30T13:41:04.066Z,101784.25
2022-08-30T13:44:12.183Z,101772.56
2022-08-30T13:50:39.236Z,101777.16
2022-08-30T13:53:58.488Z,101779.06
2022-08-30T13:57:02.170Z,101777.44
2022-08-30T14:00:09.635Z,101777.75
2022-08-30T14:03:12.612Z,101779.50
2022-08-30T14:06:32.355Z,101782.03
2022-08-30T14:09:38.313Z,101779.50
2022-08-30T14:13:07.559Z,101779.97
2022-08-30T14:19:31.002Z,101781.59
2022-08-30T14:22:33.685Z,101779.63
2022-08-30T14:25:37.825Z,101787.69
2022-08-30T14:28:44.776Z,101784.00
2022-08-30T14:31:48.754Z,101787.88
2022-08-30T14:34:51.555Z,101787.78
2022-08-30T14:37:54.198Z,101783.66
2022-08-30T14:40:58.404Z,101788.69
2022-08-30T14:44:03.815Z,101789.47
2022-08-30T14:47:07.379Z,101787.69
2022-08-30T14:50:10.765Z,101786.31
2022-08-30T14:53:13.506Z,101780.59
2022-08-30T14:56:19.984Z,101779.09
2022-08-30T14:59:23.825Z,101780.41
2022-08-30T15:02:27.182Z,101788.75
2022-08-30T15:05:30.254Z,101784.00
2022-08-30T15:08:33.138Z,101783.06
2022-08-30T15:11:38.136Z,101776.69
2022-08-30T15:14:41.736Z,101779.25
2022-08-30T15:17:44.902Z,101779.28
2022-08-30T15:20:49.370Z,101774.22
2022-08-30T15:23:52.681Z,101774.44
2022-08-30T15:26:56.844Z,101782.09
2022-08-30T15:29:59.786Z,101778.66
2022-08-30T15:33:02.917Z,101778.50
2022-08-30T15:36:06.681Z,101782.28
2022-08-30T15:39:11.008Z,101781.38
2022-08-30T15:42:19.388Z,101780.31
2022-08-30T15:45:22.531Z,101774.03
2022-08-30T15:48:25.542Z,101773.84
2022-08-30T15:51:28.563Z,101771.75
2022-08-30T15:54:33.675Z,101768.63
2022-08-30T15:57:37.822Z,101772.16
2022-08-30T16:00:44.631Z,101766.03
2022-08-30T16:03:47.920Z,101773.59
2022-08-30T16:06:51.303Z,101777.44
2022-08-30T16:09:55.366Z,101768.13
2022-08-30T16:13:01.609Z,101763.56
2022-08-30T16:16:07.791Z,101758.59
2022-08-30T16:19:10.700Z,101763.34
2022-08-30T16:22:13.808Z,101765.84
2022-08-30T16:25:25.096Z,101769.66
2022-08-30T16:28:44.320Z,101767.47
2022-08-30T16:31:47.374Z,101768.41
2022-08-30T16:34:50.367Z,101763.66
2022-08-30T16:37:53.135Z,101767.16
2022-08-30T16:40:56.599Z,101758.78
2022-08-30T16:44:00.842Z,101761.47
2022-08-30T16:47:03.679Z,101761.16
2022-08-30T16:50:09.825Z,101765.84
2022-08-30T16:53:13.517Z,101761.59
2022-08-30T16:56:18.955Z,101768.50
2022-08-30T16:59:23.231Z,101756.50
2022-08-30T17:02:26.572Z,101767.16
2022-08-30T17:05:30.434Z,101757.91
2022-08-30T17:08:33.726Z,101762.41
2022-08-30T17:11:37.808Z,101765.91
2022-08-30T17:14:44.332Z,101765.75
2022-08-30T17:17:47.020Z,101763.69
2022-08-30T17:20:49.866Z,101768.09
2022-08-30T17:23:52.573Z,101778.28
2022-08-30T17:26:58.262Z,101772.75
2022-08-30T17:30:03.072Z,101773.84
2022-08-30T17:33:05.762Z,101774.56
2022-08-30T17:36:08.743Z,101784.09
2022-08-30T17:39:11.900Z,101791.25
2022-08-30T17:42:16.042Z,101785.38
2022-08-30T17:45:20.312Z,101787.34
2022-08-30T17:48:23.153Z,101790.69
2022-08-30T17:51:25.836Z,101801.00
2022-08-30T17:54:30.082Z,101796.53
2022-08-30T17:57:32.752Z,101794.19
2022-08-30T18:00:37.701Z,101801.72
2022-08-30T18:03:45.291Z,101798.38
2022-08-30T18:06:48.909Z,101795.97
2022-08-30T18:09:53.176Z,101801.88
2022-08-30T18:12:56.704Z,101810.38
2022-08-30T18:16:02.321Z,101819.00
2022-08-30T18:19:05.997Z,101818.25
2022-08-30T18:22:12.599Z,101816.91
2022-08-30T18:25:15.352Z,101821.72
2022-08-30T18:28:19.665Z,101819.78
2022-08-30T18:31:24.630Z,101822.38
2022-08-30T18:34:28.019Z,101821.88
2022-08-30T18:37:32.050Z,101833.31
2022-08-30T18:40:34.882Z,101835.53
2022-08-30T18:43:38.284Z,101838.09
2022-08-30T18:46:45.267Z,101836.22
2022-08-30T18:49:58.817Z,101843.53
2022-08-30T18:53:02.230Z,101835.53
2022-08-30T18:56:05.299Z,101846.16
2022-08-30T18:59:08.133Z,101836.50
2022-08-30T19:02:17.482Z,101847.06
2022-08-30T19:05:22.105Z,101845.72
2022-08-30T19:08:26.206Z,101840.75
2022-08-30T19:11:29.051Z,101840.25
2022-08-30T19:14:32.028Z,101842.78
2022-08-30T19:17:36.035Z,101843.91
2022-08-30T19:20:39.393Z,101838.66
2022-08-30T19:23:44.156Z,101840.59
2022-08-30T19:26:47.059Z,101851.19
2022-08-30T19:29:53.779Z,101854.22
2022-08-30T19:32:58.174Z,101848.69
2022-08-30T19:36:01.153Z,101852.31
2022-08-30T19:39:04.640Z,101850.38
2022-08-30T19:42:07.889Z,101856.75
2022-08-30T19:45:12.826Z,101860.38
2022-08-30T19:48:16.822Z,101867.03
2022-08-30T19:51:21.303Z,101870.63
2022-08-30T19:54:24.740Z,101869.50
2022-08-30T19:57:27.648Z,101857.84
2022-08-30T20:00:31.485Z,101864.25
2022-08-30T20:03:37.519Z,101867.56
2022-08-30T20:06:44.820Z,101876.16
2022-08-30T20:09:47.929Z,101870.59
2022-08-30T20:12:52.259Z,101870.31
2022-08-30T20:15:55.896Z,101870.00
2022-08-30T20:19:00.512Z,101876.63
2022-08-30T20:22:07.824Z,101881.06
2022-08-30T20:25:15.917Z,101883.00
2022-08-30T20:28:21.865Z,101889.34
2022-08-30T20:31:24.624Z,101883.53
2022-08-30T20:34:30.383Z,101884.03
2022-08-30T20:37:33.898Z,101887.31
2022-08-30T20:40:40.066Z,101885.28
2022-08-30T20:43:42.968Z,101887.78
2022-08-30T20:46:47.160Z,101886.28
2022-08-30T20:49:51.311Z,101886.94
2022-08-30T20:52:54.008Z,101885.34
2022-08-30T20:55:56.856Z,101888.41
2022-08-30T20:59:01.914Z,101892.53
2022-08-30T21:02:06.559Z,101894.50
2022-08-30T21:05:11.917Z,101892.28
2022-08-30T21:08:14.546Z,101889.47
2022-08-30T21:11:17.352Z,101896.44
2022-08-30T21:14:21.783Z,101893.66
2022-08-30T21:17:26.456Z,101895.59
2022-08-30T21:20:30.471Z,101887.84
2022-08-30T21:23:33.292Z,101890.88
2022-08-30T21:26:36.654Z,101888.91
2022-08-30T21:29:39.660Z,101895.59
2022-08-30T21:32:42.577Z,101888.38
2022-08-30T21:36:03.931Z,101895.59
2022-08-30T21:39:07.707Z,101890.34
2022-08-30T21:42:11.582Z,101890.06
2022-08-30T21:45:15.352Z,101895.88
2022-08-30T21:48:18.055Z,101886.16
2022-08-30T21:51:22.585Z,101894.78
2022-08-30T21:54:31.215Z,101893.94
2022-08-30T21:57:34.392Z,101898.94
2022-08-30T22:00:36.998Z,101901.72
2022-08-30T22:03:42.562Z,101906.44
2022-08-30T22:06:50.406Z,101906.97
2022-08-30T22:09:53.018Z,101914.19
2022-08-30T22:12:55.834Z,101911.69
2022-08-30T22:15:58.476Z,101907.25
2022-08-30T22:19:02.059Z,101916.13
2022-08-30T22:22:06.561Z,101913.06
2022-08-30T22:25:10.628Z,101914.75
2022-08-30T22:28:15.026Z,101910.28
2022-08-30T22:31:19.369Z,101916.09
2022-08-30T22:34:22.402Z,101914.44
2022-08-30T22:37:26.501Z,101920.53
2022-08-30T22:40:29.214Z,101918.34
2022-08-30T22:43:32.043Z,101919.19
2022-08-30T22:46:35.578Z,101912.50
2022-08-30T22:49:38.409Z,101920.53
2022-08-30T22:52:42.441Z,101911.09
2022-08-30T22:55:45.260Z,101920.53
2022-08-30T22:58:48.352Z,101916.34
2022-08-30T23:01:51.181Z,101925.78
2022-08-30T23:04:53.912Z,101923.00
2022-08-30T23:07:58.168Z,101932.34
2022-08-30T23:11:02.875Z,101926.06
2022-08-30T23:14:06.644Z,101928.56
2022-08-30T23:17:09.874Z,101929.94
2022-08-30T23:20:13.265Z,101928.81
2022-08-30T23:23:34.924Z,101928.00
2022-08-30T23:26:56.297Z,101936.03
2022-08-30T23:30:16.785Z,101928.81
2022-08-30T23:33:37.134Z,101934.09
2022-08-30T23:36:57.398Z,101932.72
2022-08-30T23:40:19.149Z,101940.75
2022-08-30T23:43:39.552Z,101935.75
2022-08-30T23:46:59.758Z,101934.09
2022-08-30T23:50:20.200Z,101922.94
2022-08-30T23:53:43.796Z,101924.03
2022-08-30T23:57:05.355Z,101936.25
